Time;durP1;ratioP1;P1;durP2;ratioP2;P2;SDS_P1;SDS_P2;PMS_P1;PMS_P2;Temp;Humidity;BMP_temperature;BMP_pressure;BME280_temperature;BME280_humidity;BME280_pressure;Samples;Min_cycle;Max_cycle;Signal;HPM_P1;HPM_P2
2022/03/29 00:02:03;;;;;;;12.35;7.30;;;7.90;61.00;;;;;;5095656;28;20048;-21
2022/03/29 00:04:29;;;;;;;31.98;19.15;;;7.90;60.40;;;;;;5095665;28;20027;-21
2022/03/29 00:06:55;;;;;;;22.77;13.25;;;7.90;61.40;;;;;;5096438;28;20388;-21
2022/03/29 00:09:22;;;;;;;14.02;8.63;;;7.90;61.10;;;;;;5095709;28;20404;-21
2022/03/29 00:11:48;;;;;;;19.95;10.70;;;8.00;60.60;;;;;;5096055;28;20032;-21
2022/03/29 00:14:15;;;;;;;34.30;15.45;;;8.10;60.60;;;;;;5095463;28;20410;-21
2022/03/29 00:17:27;;;;;;;27.67;13.05;;;8.20;60.20;;;;;;5096102;28;20035;-21
2022/03/29 00:19:54;;;;;;;21.60;12.10;;;8.20;61.50;;;;;;5095780;28;20389;-21
2022/03/29 00:22:19;;;;;;;17.60;10.27;;;8.30;61.10;;;;;;5095354;28;20071;-22
2022/03/29 00:24:45;;;;;;;20.52;11.13;;;8.40;61.00;;;;;;5095802;28;20055;-21
2022/03/29 00:27:11;;;;;;;35.75;18.20;;;8.50;61.80;;;;;;5095767;28;20032;-21
2022/03/29 00:29:37;;;;;;;22.17;11.82;;;8.50;62.80;;;;;;5095788;28;20503;-21
2022/03/29 00:32:04;;;;;;;29.67;15.82;;;8.60;61.30;;;;;;5095603;28;20032;-21
2022/03/29 00:34:30;;;;;;;28.20;15.18;;;8.60;61.70;;;;;;5095223;28;20027;-20
2022/03/29 00:36:56;;;;;;;27.88;14.23;;;8.70;62.40;;;;;;5095251;28;20028;-21
2022/03/29 00:39:22;;;;;;;38.63;20.10;;;8.80;62.80;;;;;;5095553;28;20036;-21
2022/03/29 00:41:48;;;;;;;28.17;15.35;;;8.90;64.90;;;;;;5095169;28;20032;-21
2022/03/29 00:44:15;;;;;;;28.25;15.00;;;9.00;63.10;;;;;;5095217;28;20051;-20
2022/03/29 00:46:41;;;;;;;27.45;13.70;;;9.10;61.70;;;;;;5094978;28;20126;-21
2022/03/29 00:49:07;;;;;;;25.55;12.82;;;9.20;62.40;;;;;;5095008;28;20032;-21
2022/03/29 00:51:35;;;;;;;27.73;13.35;;;9.20;61.60;;;;;;5094957;28;20043;-21
2022/03/29 00:54:01;;;;;;;26.00;13.52;;;9.30;63.30;;;;;;5095099;28;20484;-21
2022/03/29 00:56:27;;;;;;;24.88;12.57;;;9.40;62.50;;;;;;5094781;28;20020;-21
2022/03/29 00:58:54;;;;;;;27.85;13.40;;;9.40;63.40;;;;;;5095431;28;20044;-21
2022/03/29 01:01:20;;;;;;;26.83;13.88;;;9.50;62.50;;;;;;5094670;28;20131;-21
2022/03/29 01:03:48;;;;;;;29.10;14.32;;;9.50;62.50;;;;;;5095017;28;20519;-21
2022/03/29 01:06:14;;;;;;;30.85;15.98;;;9.60;63.10;;;;;;5094364;28;20036;-22
2022/03/29 01:08:39;;;;;;;43.38;22.02;;;9.70;63.80;;;;;;5094457;28;20369;-21
2022/03/29 01:11:07;;;;;;;19.13;10.30;;;9.80;64.10;;;;;;5094908;28;20089;-21
2022/03/29 01:13:33;;;;;;;27.35;14.20;;;9.90;62.70;;;;;;5094515;28;20430;-21
2022/03/29 01:17:38;;;;;;;35.97;17.90;;;9.90;63.30;;;;;;5094710;28;20027;-21
2022/03/29 01:18:50;;;;;;;30.08;15.07;;;9.90;63.40;;;;;;5094710;28;20442;-21
2022/03/29 01:21:18;;;;;;;27.33;14.57;;;10.00;63.20;;;;;;5094777;28;20024;-21
2022/03/29 01:23:47;;;;;;;31.23;16.10;;;10.00;62.30;;;;;;5094361;28;20032;-21
2022/03/29 01:26:16;;;;;;;30.48;15.35;;;10.00;62.80;;;;;;5094111;28;20024;-22
2022/03/29 01:28:44;;;;;;;25.35;12.88;;;10.10;62.50;;;;;;5094540;28;20085;-21
2022/03/29 01:31:11;;;;;;;27.73;13.38;;;10.10;62.90;;;;;;5094095;28;20032;-21
2022/03/29 01:33:38;;;;;;;26.02;14.20;;;10.20;62.50;;;;;;5094345;28;20496;-21
2022/03/29 01:36:05;;;;;;;27.63;13.85;;;10.20;62.70;;;;;;5094296;28;20564;-21
2022/03/29 01:38:31;;;;;;;29.58;15.73;;;10.20;62.60;;;;;;5094180;28;20032;-21
2022/03/29 01:41:05;;;;;;;29.40;16.50;;;10.30;62.90;;;;;;5094321;28;20024;-21
2022/03/29 01:43:32;;;;;;;28.08;15.00;;;10.30;62.30;;;;;;5094032;28;20056;-21
2022/03/29 01:45:59;;;;;;;43.42;22.55;;;10.40;62.60;;;;;;5094624;28;20031;-21
2022/03/29 01:48:26;;;;;;;29.30;16.17;;;10.40;62.80;;;;;;5093781;28;20384;-21
2022/03/29 01:50:52;;;;;;;30.65;16.88;;;10.40;62.50;;;;;;5093847;28;20479;-21
2022/03/29 01:53:23;;;;;;;34.22;17.33;;;10.40;63.60;;;;;;5094132;28;20055;-21
2022/03/29 01:55:53;;;;;;;28.00;15.52;;;10.50;63.20;;;;;;5093759;28;20016;-21
2022/03/29 01:58:19;;;;;;;31.88;16.33;;;10.50;63.70;;;;;;5093871;28;20030;-21
2022/03/29 02:00:45;;;;;;;20.23;11.18;;;10.50;63.20;;;;;;5093905;28;20376;-22
2022/03/29 02:03:11;;;;;;;37.78;19.15;;;10.50;63.60;;;;;;5093658;28;20034;-21
2022/03/29 02:05:37;;;;;;;21.38;12.32;;;10.50;64.10;;;;;;5092328;28;20120;-21
2022/03/29 02:08:03;;;;;;;21.50;12.68;;;10.60;64.20;;;;;;5093880;28;20063;-21
2022/03/29 02:10:30;;;;;;;35.15;17.88;;;10.60;64.10;;;;;;5092035;28;20032;-22
2022/03/29 02:12:57;;;;;;;25.77;14.25;;;10.60;64.30;;;;;;5093608;28;20032;-21
2022/03/29 02:15:23;;;;;;;24.30;13.80;;;10.70;64.00;;;;;;5093672;28;20024;-21
2022/03/29 02:17:49;;;;;;;23.05;13.50;;;10.70;64.00;;;;;;5092040;28;20028;-21
2022/03/29 02:20:16;;;;;;;25.13;13.15;;;10.70;63.20;;;;;;5092688;28;20433;-21
2022/03/29 02:22:42;;;;;;;35.08;19.98;;;10.80;63.30;;;;;;5093393;28;20028;-21
2022/03/29 02:25:10;;;;;;;24.17;14.18;;;10.70;64.20;;;;;;5093281;28;20539;-21
2022/03/29 02:27:38;;;;;;;30.38;17.08;;;10.80;63.80;;;;;;5093315;28;20036;-21
2022/03/29 02:30:06;;;;;;;30.27;17.90;;;10.80;64.50;;;;;;5093135;28;20024;-21
2022/03/29 02:32:31;;;;;;;32.35;18.70;;;10.80;64.80;;;;;;5093430;28;20028;-21
2022/03/29 02:34:58;;;;;;;29.08;15.80;;;10.80;66.40;;;;;;5093227;28;20016;-21
2022/03/29 02:37:24;;;;;;;24.05;13.20;;;10.80;65.50;;;;;;5093208;28;20141;-21
2022/03/29 02:39:50;;;;;;;33.55;17.92;;;10.80;64.50;;;;;;5093522;28;20056;-21
2022/03/29 02:42:16;;;;;;;24.42;14.68;;;10.80;64.80;;;;;;5091740;28;20483;-22
2022/03/29 02:44:42;;;;;;;25.77;14.90;;;10.90;65.20;;;;;;5093013;28;20020;-21
2022/03/29 02:47:07;;;;;;;20.92;11.88;;;10.90;64.90;;;;;;5093050;28;20039;-21
2022/03/29 02:49:33;;;;;;;27.45;15.88;;;10.90;64.90;;;;;;5093291;28;20026;-21
2022/03/29 02:51:59;;;;;;;21.27;12.75;;;10.90;65.90;;;;;;5093089;28;20071;-21
2022/03/29 02:54:25;;;;;;;20.10;10.95;;;10.90;65.50;;;;;;5092908;28;20024;-21
2022/03/29 02:56:51;;;;;;;20.38;11.52;;;10.90;64.90;;;;;;5093308;28;20031;-21
2022/03/29 02:59:17;;;;;;;25.27;14.43;;;10.90;64.10;;;;;;5092984;28;20028;-21
2022/03/29 03:01:43;;;;;;;21.88;12.85;;;10.90;64.30;;;;;;5092830;28;20109;-21
2022/03/29 03:04:12;;;;;;;21.00;13.27;;;10.90;64.30;;;;;;5093247;28;20043;-21
2022/03/29 03:06:40;;;;;;;27.73;16.15;;;10.90;64.90;;;;;;5092926;28;20040;-21
2022/03/29 03:09:07;;;;;;;27.00;15.70;;;10.90;64.30;;;;;;5092912;28;20024;-21
2022/03/29 03:11:35;;;;;;;20.00;12.23;;;10.90;64.40;;;;;;5093189;28;20062;-21
2022/03/29 03:14:01;;;;;;;28.25;16.20;;;10.90;64.30;;;;;;5092875;28;20084;-21
2022/03/29 03:16:27;;;;;;;28.92;16.95;;;10.90;64.90;;;;;;5091387;28;20020;-22
2022/03/29 03:18:53;;;;;;;29.05;17.77;;;10.90;65.40;;;;;;5092853;28;20622;-21
2022/03/29 03:21:19;;;;;;;35.35;20.35;;;10.90;65.80;;;;;;5092822;28;20020;-21
2022/03/29 03:23:45;;;;;;;34.97;20.15;;;10.90;65.50;;;;;;5092772;28;20036;-21
2022/03/29 03:26:11;;;;;;;34.75;20.58;;;10.90;67.00;;;;;;5093284;28;20016;-21
2022/03/29 03:28:37;;;;;;;29.83;16.45;;;10.90;66.90;;;;;;5092602;28;20051;-21
2022/03/29 03:31:03;;;;;;;28.88;17.40;;;10.90;66.10;;;;;;5095229;28;20095;-21
2022/03/29 03:33:29;;;;;;;37.97;21.08;;;10.90;66.50;;;;;;5096797;28;20058;-21
2022/03/29 03:35:55;;;;;;;31.67;18.90;;;10.90;67.20;;;;;;5097068;28;20051;-21
2022/03/29 03:38:22;;;;;;;31.20;17.52;;;10.90;67.50;;;;;;5096169;28;20063;-21
2022/03/29 03:40:48;;;;;;;36.92;21.48;;;10.90;66.00;;;;;;5096641;28;20032;-21
2022/03/29 03:43:14;;;;;;;33.20;19.05;;;10.90;67.00;;;;;;5095414;28;20384;-21
2022/03/29 03:45:39;;;;;;;38.13;22.02;;;10.90;67.80;;;;;;5096073;28;20434;-21
2022/03/29 03:48:06;;;;;;;40.15;23.20;;;10.90;68.30;;;;;;5096321;28;20102;-21
2022/03/29 03:50:32;;;;;;;42.92;24.95;;;10.90;69.10;;;;;;5095991;28;20400;-21
2022/03/29 03:53:00;;;;;;;39.42;22.58;;;10.80;69.00;;;;;;5096141;28;20085;-21
2022/03/29 03:55:26;;;;;;;35.60;20.38;;;10.80;69.00;;;;;;5096358;28;20027;-21
2022/03/29 03:57:52;;;;;;;41.13;23.60;;;10.80;67.90;;;;;;5096358;28;20020;-21
2022/03/29 04:00:21;;;;;;;40.00;21.88;;;10.90;69.30;;;;;;5096135;28;20115;-21
2022/03/29 04:02:50;;;;;;;36.63;21.83;;;10.90;68.90;;;;;;5095688;28;20080;-21
2022/03/29 04:05:17;;;;;;;38.63;22.95;;;10.90;68.40;;;;;;5095855;28;20395;-21
2022/03/29 04:07:43;;;;;;;33.13;20.70;;;10.90;68.30;;;;;;5096031;28;20023;-21
2022/03/29 04:10:11;;;;;;;43.42;23.30;;;10.90;67.90;;;;;;5095826;28;20031;-21
2022/03/29 04:12:37;;;;;;;33.38;19.85;;;10.90;68.10;;;;;;5095808;28;20388;-21
2022/03/29 04:15:05;;;;;;;36.47;20.27;;;10.90;68.20;;;;;;5095711;28;20061;-21
2022/03/29 04:17:31;;;;;;;32.13;19.35;;;10.90;68.00;;;;;;5095677;28;20066;-21
2022/03/29 04:19:59;;;;;;;39.83;22.63;;;10.90;67.70;;;;;;5095928;28;20028;-22
2022/03/29 04:22:25;;;;;;;23.13;13.85;;;10.90;68.20;;;;;;5095335;28;20107;-21
2022/03/29 04:24:51;;;;;;;30.63;17.08;;;10.90;66.90;;;;;;5095876;28;20115;-22
2022/03/29 04:27:17;;;;;;;32.13;19.80;;;10.90;67.50;;;;;;5095786;28;20028;-21
2022/03/29 04:29:43;;;;;;;27.95;16.08;;;10.90;67.40;;;;;;5095704;28;20370;-21
2022/03/29 04:32:09;;;;;;;29.42;16.48;;;10.90;66.50;;;;;;5095627;28;20089;-21
2022/03/29 04:34:35;;;;;;;28.38;16.33;;;10.90;67.50;;;;;;5095195;28;20016;-21
2022/03/29 04:37:01;;;;;;;24.67;14.25;;;10.90;67.20;;;;;;5095247;28;20433;-21
2022/03/29 04:39:27;;;;;;;21.58;12.23;;;11.00;66.50;;;;;;5095484;28;20021;-21
2022/03/29 04:41:53;;;;;;;28.50;16.67;;;11.00;66.60;;;;;;5094600;28;20028;-21
2022/03/29 04:44:19;;;;;;;30.40;16.33;;;11.00;66.50;;;;;;5094917;28;20362;-21
2022/03/29 04:46:45;;;;;;;21.90;13.05;;;11.00;66.80;;;;;;5095340;28;20028;-21
2022/03/29 04:49:11;;;;;;;23.17;12.45;;;11.00;66.00;;;;;;5094580;28;20476;-21
2022/03/29 04:51:37;;;;;;;28.77;15.68;;;11.00;66.00;;;;;;5095035;28;20024;-21
2022/03/29 04:54:04;;;;;;;23.67;12.75;;;11.00;65.60;;;;;;5094986;28;20110;-21
2022/03/29 04:56:29;;;;;;;25.40;14.35;;;11.10;65.80;;;;;;5094954;28;20058;-21
2022/03/29 04:58:56;;;;;;;25.45;14.55;;;11.00;65.40;;;;;;5095438;28;20051;-21
2022/03/29 05:01:22;;;;;;;20.65;10.95;;;11.00;66.20;;;;;;5094517;28;20059;-21
2022/03/29 05:03:48;;;;;;;19.63;10.70;;;11.00;65.80;;;;;;5095316;28;20020;-21
2022/03/29 05:06:14;;;;;;;25.63;14.13;;;11.00;65.90;;;;;;5094526;28;20028;-22
2022/03/29 05:08:39;;;;;;;21.60;11.43;;;11.00;65.70;;;;;;5094956;28;20120;-21
2022/03/29 05:11:06;;;;;;;20.58;11.30;;;11.00;66.10;;;;;;5093361;28;20060;-21
2022/03/29 05:13:32;;;;;;;16.17;9.13;;;11.00;66.10;;;;;;5094855;28;20024;-21
2022/03/29 05:15:58;;;;;;;15.10;8.27;;;11.00;65.80;;;;;;5094728;28;20035;-21
2022/03/29 05:18:24;;;;;;;20.02;12.13;;;11.00;65.60;;;;;;5093009;28;20028;-21
2022/03/29 05:20:50;;;;;;;27.48;15.80;;;11.00;65.40;;;;;;5094406;28;20043;-21
2022/03/29 05:23:17;;;;;;;19.55;11.52;;;11.10;66.10;;;;;;5093077;28;20114;-21
2022/03/29 05:25:44;;;;;;;16.52;9.02;;;11.10;65.60;;;;;;5094580;28;20093;-21
2022/03/29 05:28:10;;;;;;;14.45;8.25;;;11.10;65.20;;;;;;5094329;28;20472;-21
2022/03/29 05:30:36;;;;;;;14.95;8.57;;;11.10;64.90;;;;;;5094272;28;20361;-20
2022/03/29 05:33:03;;;;;;;24.45;12.80;;;11.10;65.00;;;;;;5094226;28;20495;-21
2022/03/29 05:35:31;;;;;;;22.98;13.25;;;11.10;65.00;;;;;;5094163;28;20020;-21
2022/03/29 05:37:59;;;;;;;22.38;11.55;;;11.20;64.50;;;;;;5094151;28;20065;-21
2022/03/29 05:40:26;;;;;;;23.60;13.18;;;11.20;64.60;;;;;;5093900;28;20020;-21
2022/03/29 05:42:53;;;;;;;24.98;14.98;;;11.20;64.70;;;;;;5094023;28;20032;-21
2022/03/29 05:45:20;;;;;;;35.75;19.85;;;11.20;64.80;;;;;;5094024;28;20024;-22
2022/03/29 05:50:30;;;;;;;;;;;11.20;65.20;;;;;;5094523;28;20043;-21
2022/03/29 05:52:57;;;;;;;31.90;18.42;;;11.20;66.30;;;;;;5094296;28;19908;-21
2022/03/29 05:55:25;;;;;;;58.17;29.40;;;11.20;65.10;;;;;;5094136;28;20034;-21
2022/03/29 05:57:52;;;;;;;37.92;20.63;;;11.20;65.70;;;;;;5093756;28;20031;-21
2022/03/29 06:00:21;;;;;;;31.17;15.93;;;11.20;65.60;;;;;;5093831;28;20028;-21
2022/03/29 06:02:47;;;;;;;31.20;16.00;;;11.20;64.70;;;;;;5093490;28;20137;-21
2022/03/29 06:05:13;;;;;;;36.85;19.58;;;11.30;65.10;;;;;;5093994;28;20119;-21
2022/03/29 06:07:38;;;;;;;41.10;21.90;;;11.30;65.70;;;;;;5093615;28;20028;-21
2022/03/29 06:10:06;;;;;;;34.17;19.10;;;11.30;66.00;;;;;;5092331;28;20039;-21
2022/03/29 06:12:33;;;;;;;35.05;19.65;;;11.30;65.30;;;;;;5093654;28;20058;-21
2022/03/29 06:15:03;;;;;;;35.13;19.17;;;11.30;65.40;;;;;;5093847;28;20028;-21
2022/03/29 06:17:29;;;;;;;36.08;20.10;;;11.40;65.30;;;;;;5093384;28;20115;-21
2022/03/29 06:19:55;;;;;;;43.65;22.25;;;11.40;65.70;;;;;;5093768;28;20063;-21
2022/03/29 06:22:21;;;;;;;39.83;20.27;;;11.40;65.20;;;;;;5093448;28;20024;-21
2022/03/29 06:24:48;;;;;;;42.90;22.85;;;11.40;66.00;;;;;;5093222;28;20365;-21
2022/03/29 06:27:13;;;;;;;44.88;22.40;;;11.40;65.80;;;;;;5093328;28;20107;-21
2022/03/29 06:29:39;;;;;;;44.08;21.58;;;11.40;65.40;;;;;;5093269;28;20107;-21
2022/03/29 06:32:06;;;;;;;41.40;22.83;;;11.40;65.30;;;;;;5093514;28;20028;-21
2022/03/29 06:34:33;;;;;;;41.80;23.77;;;11.40;66.30;;;;;;5093070;28;20020;-21
2022/03/29 06:36:59;;;;;;;44.10;23.55;;;11.40;65.50;;;;;;5093689;28;20024;-21
2022/03/29 06:39:26;;;;;;;46.75;24.30;;;11.50;65.90;;;;;;5093175;28;20376;-21
2022/03/29 06:41:55;;;;;;;35.55;17.55;;;11.60;66.00;;;;;;5093173;28;20088;-21
2022/03/29 06:44:22;;;;;;;33.85;18.00;;;11.60;65.60;;;;;;5093224;28;20052;-21
2022/03/29 06:46:49;;;;;;;33.13;16.65;;;11.70;65.20;;;;;;5093307;28;20036;-21
2022/03/29 06:49:16;;;;;;;34.25;18.13;;;11.70;65.00;;;;;;5093129;28;20035;-21
2022/03/29 06:51:44;;;;;;;33.22;19.63;;;11.80;65.50;;;;;;5093020;28;20418;-21
2022/03/29 06:54:10;;;;;;;34.22;18.98;;;11.80;65.90;;;;;;5094161;28;20047;-21
2022/03/29 06:56:36;;;;;;;42.47;22.90;;;11.90;65.10;;;;;;5092789;28;20031;-21
2022/03/29 06:59:03;;;;;;;37.85;20.65;;;11.90;64.90;;;;;;5092986;28;20028;-21
2022/03/29 07:01:29;;;;;;;42.90;23.02;;;11.90;64.90;;;;;;5091736;28;20486;-21
2022/03/29 07:03:59;;;;;;;40.70;23.60;;;12.00;65.30;;;;;;5093051;28;20026;-21
2022/03/29 07:06:30;;;;;;;43.60;23.73;;;12.00;66.00;;;;;;5096140;28;20028;-21
2022/03/29 07:11:42;;;;;;;35.70;21.30;;;12.10;65.10;;;;;;5097511;28;20438;-21
2022/03/29 07:14:08;;;;;;;38.92;22.75;;;12.10;65.10;;;;;;5096857;28;20391;-21
2022/03/29 07:16:34;;;;;;;37.20;20.70;;;12.10;64.80;;;;;;5095315;28;20028;-21
2022/03/29 07:19:01;;;;;;;36.47;20.65;;;12.20;64.30;;;;;;5096762;28;20027;-21
2022/03/29 07:21:27;;;;;;;37.47;22.05;;;12.20;64.40;;;;;;5096736;28;20108;-21
2022/03/29 07:23:53;;;;;;;36.05;20.67;;;12.20;64.20;;;;;;5096708;28;20434;-21
2022/03/29 07:26:18;;;;;;;39.08;21.50;;;12.20;63.90;;;;;;5096483;28;20028;-21
2022/03/29 07:28:47;;;;;;;36.47;20.63;;;12.20;64.50;;;;;;5096421;28;20031;-21
2022/03/29 07:31:13;;;;;;;33.88;20.65;;;12.20;64.40;;;;;;5096794;28;20028;-21
2022/03/29 07:33:39;;;;;;;37.13;22.38;;;12.30;64.30;;;;;;5097382;28;20349;-21
2022/03/29 07:36:05;;;;;;;31.20;18.23;;;12.30;64.30;;;;;;5096712;28;20381;-20
2022/03/29 07:38:31;;;;;;;48.28;27.83;;;12.40;64.30;;;;;;5096503;28;20032;-20
2022/03/29 07:40:57;;;;;;;33.15;18.95;;;12.40;64.60;;;;;;5096724;28;20380;-21
2022/03/29 07:43:23;;;;;;;37.40;21.55;;;12.50;64.50;;;;;;5096352;28;20039;-20
2022/03/29 07:45:49;;;;;;;37.35;20.98;;;12.60;64.00;;;;;;5096800;28;20117;-20
2022/03/29 07:48:15;;;;;;;33.47;18.67;;;12.60;64.40;;;;;;5094807;28;20484;-21
2022/03/29 07:50:42;;;;;;;43.67;25.58;;;12.80;63.80;;;;;;5096197;28;20483;-20
2022/03/29 07:53:08;;;;;;;30.13;18.80;;;12.90;64.10;;;;;;5096251;28;20027;-20
2022/03/29 07:55:36;;;;;;;35.53;19.83;;;13.00;63.40;;;;;;5096076;28;20031;-20
2022/03/29 07:58:02;;;;;;;34.00;20.77;;;13.10;63.00;;;;;;5096359;28;20032;-20
2022/03/29 08:00:31;;;;;;;27.35;17.08;;;13.20;62.80;;;;;;5096055;28;20035;-20
2022/03/29 08:03:05;;;;;;;31.98;20.48;;;13.40;62.60;;;;;;5095793;28;20101;-20
2022/03/29 08:05:34;;;;;;;34.03;20.48;;;13.50;62.10;;;;;;5096184;28;20106;-20
2022/03/29 08:08:01;;;;;;;33.55;20.35;;;13.60;61.80;;;;;;5095891;28;20028;-20
2022/03/29 08:10:29;;;;;;;30.15;18.80;;;13.90;61.60;;;;;;5095857;28;20051;-20
2022/03/29 08:12:57;;;;;;;32.15;20.98;;;14.00;61.20;;;;;;5095796;28;20380;-20
2022/03/29 08:15:24;;;;;;;31.17;20.35;;;14.10;60.80;;;;;;5096068;28;20452;-20
2022/03/29 08:17:50;;;;;;;31.98;20.92;;;14.30;60.50;;;;;;5093105;28;20392;-21
2022/03/29 08:20:17;;;;;;;27.33;17.23;;;14.40;60.30;;;;;;5095547;28;20021;-21
2022/03/29 08:22:47;;;;;;;26.63;16.02;;;14.50;59.80;;;;;;5096269;28;20073;-21
2022/03/29 08:25:15;;;;;;;30.98;19.23;;;14.60;59.50;;;;;;5095715;28;20448;-21
2022/03/29 08:27:45;;;;;;;27.23;16.92;;;14.70;59.20;;;;;;5095796;28;20028;-20
2022/03/29 08:30:13;;;;;;;32.50;21.77;;;14.80;59.00;;;;;;5095367;28;20360;-21
2022/03/29 08:32:40;;;;;;;25.05;16.52;;;14.90;58.80;;;;;;5095403;28;20090;-21
2022/03/29 08:35:08;;;;;;;27.20;17.45;;;15.10;58.50;;;;;;5095836;28;20031;-20
2022/03/29 08:37:36;;;;;;;27.52;17.60;;;15.20;58.10;;;;;;5095622;28;20107;-20
2022/03/29 08:40:11;;;;;;;28.05;18.27;;;15.40;57.90;;;;;;5095536;28;20365;-20
2022/03/29 08:42:38;;;;;;;23.88;14.77;;;15.50;57.40;;;;;;5095347;28;20043;-21
2022/03/29 08:45:08;;;;;;;24.17;15.38;;;15.70;57.20;;;;;;5095378;28;20066;-21
2022/03/29 08:47:34;;;;;;;28.48;17.52;;;15.80;56.70;;;;;;5095315;28;20066;-21
2022/03/29 08:50:05;;;;;;;21.10;14.30;;;15.90;56.20;;;;;;5095100;28;20024;-21
2022/03/29 08:52:32;;;;;;;36.10;22.73;;;16.00;56.10;;;;;;5095490;28;20097;-21
2022/03/29 08:54:59;;;;;;;21.98;13.70;;;16.20;55.70;;;;;;5095231;28;20039;-20
2022/03/29 08:57:25;;;;;;;29.05;19.27;;;16.30;55.50;;;;;;5095228;28;20024;-21
2022/03/29 08:59:50;;;;;;;25.90;18.23;;;16.50;55.10;;;;;;5094832;28;20488;-20
2022/03/29 09:02:17;;;;;;;31.58;20.08;;;16.70;54.80;;;;;;5094288;28;20052;-19
2022/03/29 09:04:44;;;;;;;27.75;17.63;;;16.90;54.40;;;;;;5094703;28;20035;-20
2022/03/29 09:07:11;;;;;;;35.80;20.25;;;17.00;54.20;;;;;;5095036;28;20099;-20
2022/03/29 09:09:41;;;;;;;25.52;16.50;;;17.10;53.60;;;;;;5094997;28;20020;-20
2022/03/29 09:12:12;;;;;;;22.63;15.38;;;17.30;53.60;;;;;;5094932;28;20028;-20
2022/03/29 09:15:01;;;;;;;22.25;14.38;;;17.40;53.30;;;;;;5094890;28;20016;-20
2022/03/29 09:17:42;;;;;;;19.95;13.77;;;17.60;52.30;;;;;;5094797;28;20027;-20
2022/03/29 09:20:11;;;;;;;26.20;16.08;;;17.70;52.60;;;;;;5094863;28;20016;-20
2022/03/29 09:22:37;;;;;;;21.42;14.55;;;17.90;52.30;;;;;;5094742;28;20034;-20
2022/03/29 09:25:07;;;;;;;26.90;18.60;;;18.00;51.90;;;;;;5094264;28;20127;-21
2022/03/29 09:28:00;;;;;;;23.77;16.15;;;18.20;51.60;;;;;;5093769;28;20028;-21
2022/03/29 09:30:32;;;;;;;31.90;20.65;;;18.40;50.80;;;;;;5094203;28;20488;-22
2022/03/29 09:33:11;;;;;;;20.13;13.30;;;18.60;51.10;;;;;;5094315;28;20024;-20
2022/03/29 09:35:58;;;;;;;27.42;17.40;;;18.70;50.90;;;;;;5094288;28;20060;-21
2022/03/29 09:38:34;;;;;;;22.55;16.30;;;18.90;50.50;;;;;;5094201;28;20024;-20
2022/03/29 09:41:02;;;;;;;25.58;17.52;;;19.10;50.20;;;;;;5094196;28;20043;-21
2022/03/29 09:43:29;;;;;;;21.73;16.17;;;19.30;49.80;;;;;;5094542;28;20103;-20
2022/03/29 09:45:59;;;;;;;23.85;16.70;;;19.40;49.20;;;;;;5093849;28;20077;-21
2022/03/29 09:48:40;;;;;;;23.15;15.20;;;19.60;48.80;;;;;;5093799;28;20027;-21
2022/03/29 09:51:14;;;;;;;22.58;15.27;;;19.90;47.40;;;;;;5093942;28;20170;-20
2022/03/29 09:53:52;;;;;;;20.38;14.48;;;20.10;47.80;;;;;;5094218;28;20032;-20
2022/03/29 09:56:36;;;;;;;22.75;15.13;;;20.30;47.40;;;;;;5093923;28;20050;-21
2022/03/29 09:59:17;;;;;;;25.17;17.48;;;20.60;46.70;;;;;;5093787;28;20035;-21
2022/03/29 10:01:57;;;;;;;25.90;17.70;;;20.90;46.50;;;;;;5093488;28;20044;-20
2022/03/29 10:04:25;;;;;;;21.30;15.45;;;21.10;45.70;;;;;;5093444;28;20028;-20
2022/03/29 10:06:54;;;;;;;17.42;12.50;;;21.30;45.60;;;;;;5093664;28;20040;-20
2022/03/29 10:09:29;;;;;;;23.35;15.60;;;21.40;45.70;;;;;;5093934;28;20055;-20
2022/03/29 10:11:59;;;;;;;22.38;16.73;;;21.60;45.60;;;;;;5093926;28;20016;-20
2022/03/29 10:14:27;;;;;;;18.33;12.75;;;21.90;44.80;;;;;;5093700;28;20044;-20
2022/03/29 10:16:54;;;;;;;22.92;14.73;;;22.00;44.70;;;;;;5093386;28;20432;-21
2022/03/29 10:19:21;;;;;;;23.00;17.08;;;22.30;44.10;;;;;;5093527;28;20062;-20
2022/03/29 10:21:48;;;;;;;21.88;15.15;;;22.40;43.50;;;;;;5093679;28;20017;-20
2022/03/29 10:24:17;;;;;;;17.48;13.05;;;22.50;43.30;;;;;;5093623;28;20124;-21
2022/03/29 10:26:46;;;;;;;15.63;11.45;;;22.70;43.20;;;;;;5093697;28;20020;-20
2022/03/29 10:29:13;;;;;;;19.02;13.32;;;22.80;43.20;;;;;;5093876;28;20028;-20
2022/03/29 10:31:55;;;;;;;15.35;11.30;;;23.00;43.10;;;;;;5093653;28;20028;-20
2022/03/29 10:34:30;;;;;;;19.48;15.30;;;23.30;42.80;;;;;;5093424;28;20028;-21
2022/03/29 10:37:14;;;;;;;20.05;13.15;;;23.60;42.30;;;;;;5093289;28;20471;-21
2022/03/29 10:39:49;;;;;;;20.70;14.43;;;23.80;40.60;;;;;;5092424;28;20028;-20
2022/03/29 10:42:38;;;;;;;22.95;14.90;;;24.00;40.80;;;;;;5092922;28;20480;-21
2022/03/29 10:45:12;;;;;;;18.08;12.15;;;24.30;39.60;;;;;;5093853;28;20058;-21
2022/03/29 10:47:40;;;;;;;17.98;12.05;;;24.40;40.70;;;;;;5093079;28;20032;-20
2022/03/29 10:50:10;;;;;;;21.35;15.20;;;24.60;40.30;;;;;;5093460;28;20016;-20
2022/03/29 10:52:47;;;;;;;22.70;14.88;;;24.60;40.10;;;;;;5092903;28;20404;-20
2022/03/29 10:55:16;;;;;;;21.77;15.18;;;24.70;39.70;;;;;;5093066;28;20039;-20
2022/03/29 10:58:03;;;;;;;18.88;13.38;;;24.70;39.30;;;;;;5092987;28;20035;-20
2022/03/29 11:00:33;;;;;;;17.23;13.10;;;24.70;39.20;;;;;;5093194;28;20043;-21
2022/03/29 11:03:21;;;;;;;19.42;15.07;;;24.80;39.90;;;;;;5092836;28;20062;-20
2022/03/29 11:06:14;;;;;;;19.30;13.52;;;24.90;39.00;;;;;;5092958;28;20044;-20
2022/03/29 11:08:49;;;;;;;18.45;14.38;;;24.90;37.70;;;;;;5092998;28;20024;-21
2022/03/29 11:11:46;;;;;;;23.40;16.30;;;25.10;39.50;;;;;;5092973;28;20099;-20
2022/03/29 11:14:32;;;;;;;17.33;13.05;;;25.10;37.50;;;;;;5092660;28;20027;-20
2022/03/29 11:17:01;;;;;;;19.50;12.20;;;25.30;37.00;;;;;;5093071;28;20424;-20
2022/03/29 11:19:48;;;;;;;17.73;13.63;;;25.30;39.00;;;;;;5092723;28;20028;-20
2022/03/29 11:22:29;;;;;;;18.48;14.45;;;25.40;38.50;;;;;;5092651;28;20044;-20
2022/03/29 11:25:22;;;;;;;17.30;11.35;;;25.50;38.70;;;;;;5093511;28;20039;-21
2022/03/29 11:27:48;;;;;;;22.52;15.98;;;25.70;37.60;;;;;;5092868;28;20463;-20
2022/03/29 11:30:14;;;;;;;22.08;17.33;;;25.80;38.30;;;;;;5092923;28;20145;-21
2022/03/29 11:32:43;;;;;;;20.05;15.05;;;25.90;38.00;;;;;;5092991;28;20478;-21
2022/03/29 11:35:12;;;;;;;16.52;12.82;;;26.10;38.00;;;;;;5092705;28;20028;-21
2022/03/29 11:37:49;;;;;;;15.27;12.05;;;26.30;38.00;;;;;;5092950;28;20034;-20
2022/03/29 11:40:20;;;;;;;17.40;13.63;;;26.40;37.50;;;;;;5092889;28;20448;-20
2022/03/29 11:42:54;;;;;;;15.73;11.90;;;26.50;37.40;;;;;;5092573;28;20404;-20
2022/03/29 11:45:25;;;;;;;12.80;9.07;;;26.60;37.10;;;;;;5092596;28;20103;-20
2022/03/29 11:47:59;;;;;;;15.18;12.32;;;26.60;37.20;;;;;;5092613;28;20115;-20
2022/03/29 11:50:35;;;;;;;18.52;14.38;;;26.70;36.60;;;;;;5092664;28;20024;-20
2022/03/29 11:53:22;;;;;;;16.00;11.82;;;26.80;36.30;;;;;;5096501;28;20055;-20
2022/03/29 11:56:06;;;;;;;16.80;12.35;;;26.80;36.60;;;;;;5095837;28;20395;-20
2022/03/29 11:58:34;;;;;;;18.83;13.43;;;26.90;34.70;;;;;;5096262;28;20024;-20
2022/03/29 12:01:08;;;;;;;20.35;15.23;;;27.00;36.10;;;;;;5096142;28;20040;-22
2022/03/29 12:03:37;;;;;;;18.30;14.25;;;27.20;34.60;;;;;;5096056;28;20503;-20
2022/03/29 12:06:14;;;;;;;16.35;12.25;;;27.30;35.70;;;;;;5095912;28;20040;-20
2022/03/29 12:08:58;;;;;;;18.73;14.52;;;27.30;34.40;;;;;;5094687;28;20085;-20
2022/03/29 12:11:32;;;;;;;15.82;13.00;;;27.30;34.30;;;;;;5096070;28;20028;-20
2022/03/29 12:14:12;;;;;;;16.60;12.73;;;27.30;34.80;;;;;;5095826;28;20046;-20
2022/03/29 12:16:46;;;;;;;22.38;16.27;;;27.30;34.20;;;;;;5095991;28;20016;-20
2022/03/29 12:19:25;;;;;;;17.17;13.50;;;27.30;34.20;;;;;;5094494;28;20050;-20
2022/03/29 12:21:54;;;;;;;18.15;14.48;;;27.20;34.40;;;;;;5095980;28;20166;-20
2022/03/29 12:24:21;;;;;;;18.83;13.27;;;27.20;35.20;;;;;;5095415;28;20508;-20
2022/03/29 12:26:53;;;;;;;19.10;13.68;;;27.10;35.30;;;;;;5095546;28;20031;-20
2022/03/29 12:29:25;;;;;;;18.98;12.82;;;27.10;35.20;;;;;;5095570;28;20024;-20
2022/03/29 12:31:54;;;;;;;16.27;12.73;;;27.20;35.40;;;;;;5095756;28;20116;-20
2022/03/29 12:34:23;;;;;;;17.88;13.27;;;27.40;35.20;;;;;;5095309;28;20382;-20
2022/03/29 12:36:52;;;;;;;20.83;15.07;;;27.60;35.00;;;;;;5095376;28;20032;-20
2022/03/29 12:39:18;;;;;;;16.77;12.88;;;27.80;34.70;;;;;;5095636;28;20020;-20
2022/03/29 12:41:53;;;;;;;15.40;13.25;;;27.90;34.50;;;;;;5095397;28;20395;-20
2022/03/29 12:44:39;;;;;;;17.27;12.63;;;28.00;34.20;;;;;;5095092;28;20099;-21